createdAt,value
2023-08-13T00:01:22.063Z,99236.75
2023-08-13T00:03:49.623Z,99237.66
2023-08-13T00:06:17.225Z,99235.42
2023-08-13T00:08:44.717Z,99235.11
2023-08-13T00:11:12.858Z,99238.66
2023-08-13T00:13:41.338Z,99232.58
2023-08-13T00:16:09.227Z,99236.12
2023-08-13T00:18:36.968Z,99229.58
2023-08-13T00:21:04.451Z,99232.61
2023-08-13T00:23:32.236Z,99232.52
2023-08-13T00:25:59.618Z,99228.56
2023-08-13T00:28:27.051Z,99226.14
2023-08-13T00:30:55.629Z,99229.14
2023-08-13T00:33:23.015Z,99229.50
2023-08-13T00:35:51.947Z,99223.64
2023-08-13T00:38:19.912Z,99226.30
2023-08-13T00:40:47.888Z,99225.83
2023-08-13T00:46:25.264Z,99221.66
2023-08-13T00:48:55.847Z,99220.72
2023-08-13T00:51:23.877Z,99221.90
2023-08-13T00:53:51.447Z,99213.98
2023-08-13T00:56:19.019Z,99217.02
2023-08-13T00:58:46.903Z,99215.33
2023-08-13T01:01:14.589Z,99212.75
2023-08-13T01:03:42.446Z,99216.95
2023-08-13T01:06:15.242Z,99219.23
2023-08-13T01:09:11.375Z,99221.37
2023-08-13T01:11:57.241Z,99219.29
2023-08-13T01:14:32.697Z,99218.25
2023-08-13T01:17:00.107Z,99220.74
2023-08-13T01:19:27.494Z,99222.95
2023-08-13T01:21:55.655Z,99222.30
2023-08-13T01:24:23.263Z,99218.17
2023-08-13T01:27:13.707Z,99216.09
2023-08-13T01:29:48.083Z,99215.52
2023-08-13T01:32:16.353Z,99214.40
2023-08-13T01:34:44.228Z,99215.50
2023-08-13T01:37:11.847Z,99214.37
2023-08-13T01:39:39.261Z,99218.02
2023-08-13T01:42:07.864Z,99220.48
2023-08-13T01:44:36.471Z,99220.98
2023-08-13T01:47:06.120Z,99220.81
2023-08-13T01:49:33.833Z,99217.48
2023-08-13T01:52:01.220Z,99216.98
2023-08-13T01:54:29.261Z,99214.36
2023-08-13T01:56:56.649Z,99220.31
2023-08-13T01:59:24.412Z,99215.45
2023-08-13T02:01:51.833Z,99219.30
2023-08-13T02:04:19.181Z,99222.08
2023-08-13T02:06:46.830Z,99228.21
2023-08-13T02:09:14.239Z,99227.64
2023-08-13T02:11:41.871Z,99227.77
2023-08-13T02:14:10.043Z,99228.73
2023-08-13T02:16:37.472Z,99230.17
2023-08-13T02:19:05.217Z,99227.57
2023-08-13T02:21:32.942Z,99225.81
2023-08-13T02:24:00.567Z,99228.21
2023-08-13T02:26:27.882Z,99229.23
2023-08-13T02:28:55.378Z,99234.10
2023-08-13T02:31:22.836Z,99235.17
2023-08-13T02:33:50.350Z,99236.67
2023-08-13T02:36:17.704Z,99236.58
2023-08-13T02:38:45.208Z,99240.67
2023-08-13T02:41:12.649Z,99239.33
2023-08-13T02:43:56.630Z,99236.95
2023-08-13T02:46:25.221Z,99239.39
2023-08-13T02:48:57.074Z,99238.37
2023-08-13T02:51:25.131Z,99243.95
2023-08-13T02:53:52.665Z,99248.13
2023-08-13T02:56:20.408Z,99251.08
2023-08-13T02:58:47.820Z,99249.13
2023-08-13T03:01:15.241Z,99253.30
2023-08-13T03:03:52.361Z,99261.86
2023-08-13T03:06:24.175Z,99263.46
2023-08-13T03:08:51.889Z,99267.86
2023-08-13T03:11:19.452Z,99267.58
2023-08-13T03:13:47.875Z,99267.13
2023-08-13T03:16:16.157Z,99264.86
2023-08-13T03:18:44.005Z,99261.39
2023-08-13T03:21:14.061Z,99263.29
2023-08-13T03:23:41.476Z,99265.02
2023-08-13T03:26:08.957Z,99272.69
2023-08-13T03:28:36.797Z,99276.88
2023-08-13T03:31:11.451Z,99278.54
2023-08-13T03:33:47.952Z,99278.05
2023-08-13T03:36:15.412Z,99272.89
2023-08-13T03:38:42.753Z,99274.00
2023-08-13T03:41:10.893Z,99270.08
2023-08-13T03:43:38.226Z,99269.31
2023-08-13T03:46:05.644Z,99264.10
2023-08-13T03:48:33.924Z,99264.38
2023-08-13T03:51:05.169Z,99260.11
2023-08-13T03:53:33.113Z,99264.23
2023-08-13T03:56:00.640Z,99262.28
2023-08-13T03:58:29.530Z,99260.42
2023-08-13T04:00:57.027Z,99260.90
2023-08-13T04:03:26.700Z,99257.55
2023-08-13T04:05:55.091Z,99257.52
2023-08-13T04:08:22.498Z,99262.34
2023-08-13T04:10:51.398Z,99258.27
2023-08-13T04:13:20.555Z,99255.09
2023-08-13T04:15:48.076Z,99249.20
2023-08-13T04:18:15.861Z,99253.33
2023-08-13T04:20:43.503Z,99253.23
2023-08-13T04:23:11.018Z,99257.38
2023-08-13T04:25:40.860Z,99256.43
2023-08-13T04:28:08.651Z,99252.43
2023-08-13T04:30:39.768Z,99252.12
2023-08-13T04:33:07.530Z,99252.76
2023-08-13T04:35:35.491Z,99251.68
2023-08-13T04:38:03.366Z,99252.66
2023-08-13T04:40:33.340Z,99259.89
2023-08-13T04:43:00.735Z,99257.68
2023-08-13T04:45:29.329Z,99257.30
2023-08-13T04:47:56.915Z,99252.02
2023-08-13T04:50:24.719Z,99249.00
2023-08-13T04:52:52.067Z,99250.64
2023-08-13T04:55:19.860Z,99256.77
2023-08-13T04:57:50.598Z,99255.67
2023-08-13T05:00:20.444Z,99255.95
2023-08-13T05:02:49.578Z,99262.38
2023-08-13T05:05:18.137Z,99264.34
2023-08-13T05:07:46.889Z,99261.03
2023-08-13T05:10:14.380Z,99262.90
2023-08-13T05:12:41.711Z,99268.66
2023-08-13T05:15:09.958Z,99264.48
2023-08-13T05:17:38.733Z,99267.28
2023-08-13T05:20:07.942Z,99271.04
2023-08-13T05:22:35.331Z,99275.70
2023-08-13T05:25:03.724Z,99274.92
2023-08-13T05:27:31.336Z,99274.64
2023-08-13T05:29:58.947Z,99272.52
2023-08-13T05:32:27.053Z,99272.55
2023-08-13T05:34:54.566Z,99273.27
2023-08-13T05:37:22.581Z,99272.44
2023-08-13T05:39:50.126Z,99269.73
2023-08-13T05:42:17.689Z,99272.70
2023-08-13T05:44:45.419Z,99273.67
2023-08-13T05:47:14.996Z,99279.48
2023-08-13T05:49:42.853Z,99280.15
2023-08-13T05:52:10.267Z,99283.58
2023-08-13T05:54:37.589Z,99291.48
2023-08-13T05:57:04.958Z,99287.57
2023-08-13T05:59:34.342Z,99286.52
2023-08-13T06:02:01.858Z,99287.39
2023-08-13T06:04:29.423Z,99281.37
2023-08-13T06:06:56.755Z,99278.72
2023-08-13T06:09:24.557Z,99273.12
2023-08-13T06:11:51.990Z,99277.95
2023-08-13T06:14:19.581Z,99279.77
2023-08-13T06:16:49.143Z,99282.10
2023-08-13T06:19:20.042Z,99284.64
2023-08-13T06:21:47.356Z,99289.83
2023-08-13T06:24:14.706Z,99286.86
2023-08-13T06:26:42.142Z,99289.05
2023-08-13T06:29:09.704Z,99289.88
2023-08-13T06:31:43.095Z,99290.15
2023-08-13T06:34:11.203Z,99288.63
2023-08-13T06:36:38.527Z,99287.95
2023-08-13T06:39:06.157Z,99287.84
2023-08-13T06:41:33.996Z,99290.01
2023-08-13T06:44:04.626Z,99283.61
2023-08-13T06:46:32.088Z,99284.46
2023-08-13T06:48:59.531Z,99285.06
2023-08-13T06:51:26.886Z,99288.68
2023-08-13T06:53:54.237Z,99291.17
2023-08-13T06:56:21.591Z,99293.14
2023-08-13T06:58:48.947Z,99289.45
2023-08-13T07:01:16.335Z,99292.02
2023-08-13T07:03:45.651Z,99297.06
2023-08-13T07:06:13.152Z,99296.88
2023-08-13T07:08:40.804Z,99295.23
2023-08-13T07:11:08.219Z,99293.46
2023-08-13T07:13:35.629Z,99292.95
2023-08-13T07:16:03.088Z,99291.02
2023-08-13T07:18:30.428Z,99291.98
2023-08-13T07:20:57.739Z,99295.33
2023-08-13T07:23:25.123Z,99295.06
2023-08-13T07:25:52.560Z,99292.03
2023-08-13T07:28:19.884Z,99293.23
2023-08-13T07:30:48.781Z,99291.95
2023-08-13T07:33:16.244Z,99286.25
2023-08-13T07:35:43.665Z,99286.67
2023-08-13T07:38:11.225Z,99286.39
2023-08-13T07:40:38.787Z,99286.63
2023-08-13T07:43:06.218Z,99285.96
2023-08-13T07:45:34.342Z,99281.05
2023-08-13T07:48:01.936Z,99282.91
2023-08-13T07:50:31.957Z,99281.40
2023-08-13T07:52:59.431Z,99281.48
2023-08-13T07:55:26.941Z,99278.90
2023-08-13T07:57:54.784Z,99276.48
2023-08-13T08:00:22.212Z,99277.20
2023-08-13T08:02:49.792Z,99272.50
2023-08-13T08:05:17.895Z,99271.50
2023-08-13T08:07:45.276Z,99272.99
2023-08-13T08:10:13.101Z,99270.88
2023-08-13T08:12:40.453Z,99274.34
2023-08-13T08:15:08.782Z,99270.02
2023-08-13T08:17:38.260Z,99270.48
2023-08-13T08:20:07.791Z,99271.73
2023-08-13T08:22:35.346Z,99271.84
2023-08-13T08:25:07.617Z,99272.31
2023-08-13T08:27:34.905Z,99266.77
2023-08-13T08:30:02.385Z,99262.73
2023-08-13T08:32:31.282Z,99260.84
2023-08-13T08:34:58.697Z,99256.49
2023-08-13T08:37:26.073Z,99256.13
2023-08-13T08:39:55.028Z,99251.86
2023-08-13T08:42:22.540Z,99257.14
2023-08-13T08:44:49.972Z,99250.02
2023-08-13T08:47:17.287Z,99250.05
2023-08-13T08:49:46.370Z,99245.82
2023-08-13T08:52:14.642Z,99242.37
2023-08-13T08:54:42.216Z,99244.70
2023-08-13T08:57:09.693Z,99243.31
2023-08-13T08:59:37.429Z,99245.10
2023-08-13T09:02:05.109Z,99242.91
2023-08-13T09:04:32.651Z,99242.55
2023-08-13T09:07:01.615Z,99238.98
2023-08-13T09:09:29.021Z,99238.26
2023-08-13T09:11:56.818Z,99234.99
2023-08-13T09:14:24.803Z,99237.09
2023-08-13T09:16:53.245Z,99238.72
2023-08-13T09:19:22.913Z,99234.08
2023-08-13T09:21:59.961Z,99230.67
2023-08-13T09:24:35.283Z,99233.95
2023-08-13T09:27:03.161Z,99232.99
2023-08-13T09:29:33.610Z,99233.95
2023-08-13T09:32:01.490Z,99233.80
2023-08-13T09:34:29.548Z,99237.60
2023-08-13T09:36:57.810Z,99235.69
2023-08-13T09:39:26.624Z,99240.18
2023-08-13T09:41:54.261Z,99239.16
2023-08-13T09:44:22.840Z,99244.35
2023-08-13T09:46:53.430Z,99245.23
2023-08-13T09:49:22.876Z,99241.59
2023-08-13T09:51:50.637Z,99236.25
2023-08-13T09:54:38.968Z,99236.94
2023-08-13T09:57:11.383Z,99231.20
2023-08-13T09:59:38.819Z,99232.81
2023-08-13T10:02:09.650Z,99232.02
2023-08-13T10:04:37.057Z,99229.91
2023-08-13T10:07:05.201Z,99226.48
2023-08-13T10:09:35.799Z,99223.26
2023-08-13T10:12:03.420Z,99224.52
2023-08-13T10:14:31.436Z,99223.48
2023-08-13T10:17:06.911Z,99226.45
2023-08-13T10:19:41.792Z,99225.27
2023-08-13T10:22:09.997Z,99225.46
2023-08-13T10:24:37.349Z,99224.45
2023-08-13T10:27:04.938Z,99229.42
2023-08-13T10:29:37.044Z,99227.59
2023-08-13T10:32:15.254Z,99225.84
2023-08-13T10:34:51.609Z,99226.90
2023-08-13T10:37:23.570Z,99222.90
2023-08-13T10:39:57.099Z,99227.20
2023-08-13T10:42:27.588Z,99221.05
2023-08-13T10:44:57.344Z,99216.27
2023-08-13T10:47:24.865Z,99220.04
2023-08-13T10:49:52.278Z,99223.73
2023-08-13T10:52:19.919Z,99223.67
2023-08-13T10:54:47.272Z,99220.73
2023-08-13T10:57:14.654Z,99219.73
2023-08-13T10:59:42.708Z,99211.41
2023-08-13T11:02:21.506Z,99212.71
2023-08-13T11:04:50.285Z,99208.03
2023-08-13T11:07:17.622Z,99198.45
2023-08-13T11:09:45.038Z,99200.34
2023-08-13T11:12:13.624Z,99199.36
2023-08-13T11:14:41.504Z,99198.54
2023-08-13T11:17:09.537Z,99200.23
2023-08-13T11:19:37.488Z,99201.86
2023-08-13T11:25:05.605Z,99199.98
2023-08-13T11:27:33.149Z,99199.04
2023-08-13T11:30:00.689Z,99198.77
2023-08-13T11:32:28.898Z,99197.96
2023-08-13T11:34:56.519Z,99195.73
2023-08-13T11:37:24.001Z,99198.58
2023-08-13T11:39:51.771Z,99199.12
2023-08-13T11:42:19.195Z,99199.38
2023-08-13T11:44:49.260Z,99193.55
2023-08-13T11:47:27.580Z,99195.71
2023-08-13T11:50:00.365Z,99197.10
2023-08-13T11:52:27.833Z,99190.64
2023-08-13T11:54:57.925Z,99189.75
2023-08-13T11:57:25.264Z,99187.61
2023-08-13T11:59:52.743Z,99185.40
2023-08-13T12:02:20.397Z,99180.80
2023-08-13T12:04:48.572Z,99184.11
2023-08-13T12:07:16.553Z,99180.70
2023-08-13T12:09:43.949Z,99178.34
2023-08-13T12:12:11.286Z,99177.02
2023-08-13T12:14:46.048Z,99174.69
2023-08-13T12:17:13.950Z,99174.79
2023-08-13T12:19:41.371Z,99175.52
2023-08-13T12:22:09.198Z,99173.69
2023-08-13T12:24:36.544Z,99167.11
2023-08-13T12:27:03.985Z,99163.23
2023-08-13T12:29:31.486Z,99164.73
2023-08-13T12:31:58.912Z,99161.16
2023-08-13T12:34:26.342Z,99157.13
2023-08-13T12:36:53.912Z,99156.57
2023-08-13T12:39:21.575Z,99157.30
2023-08-13T12:41:48.937Z,99154.69
2023-08-13T12:44:16.686Z,99157.02
2023-08-13T12:46:44.109Z,99160.52
2023-08-13T12:49:11.465Z,99156.95
2023-08-13T12:51:38.788Z,99152.88
2023-08-13T12:54:06.260Z,99154.22
2023-08-13T12:56:33.552Z,99150.71
2023-08-13T12:59:01.083Z,99146.98
2023-08-13T13:01:28.779Z,99143.94
2023-08-13T13:03:56.313Z,99140.65
2023-08-13T13:06:23.716Z,99135.75
2023-08-13T13:08:51.756Z,99137.19
2023-08-13T13:11:19.136Z,99137.69
2023-08-13T13:13:46.717Z,99131.98
2023-08-13T13:16:14.346Z,99129.36
2023-08-13T13:18:41.809Z,99130.64
2023-08-13T13:21:09.400Z,99127.80
2023-08-13T13:23:36.769Z,99126.61
2023-08-13T13:26:04.223Z,99121.85
2023-08-13T13:28:31.643Z,99128.73
2023-08-13T13:30:59.040Z,99126.89
2023-08-13T13:33:26.673Z,99127.66
2023-08-13T13:35:53.990Z,99129.36
2023-08-13T13:38:21.594Z,99130.14
2023-08-13T13:40:49.009Z,99127.95
2023-08-13T13:43:16.359Z,99130.54
2023-08-13T13:45:44.007Z,99130.27
2023-08-13T13:48:11.572Z,99131.52
2023-08-13T13:50:39.061Z,99133.37
2023-08-13T13:53:19.338Z,99134.31
2023-08-13T13:55:48.952Z,99133.17
2023-08-13T13:58:16.304Z,99131.17
2023-08-13T14:00:44.462Z,99129.20
2023-08-13T14:03:11.956Z,99130.14
2023-08-13T14:05:39.472Z,99125.91
2023-08-13T14:08:07.004Z,99125.90
2023-08-13T14:10:34.418Z,99128.77
2023-08-13T14:13:01.948Z,99128.02
2023-08-13T14:15:29.282Z,99125.48
2023-08-13T14:17:56.755Z,99127.29
2023-08-13T14:20:24.236Z,99128.92
2023-08-13T14:22:51.546Z,99134.33
2023-08-13T14:25:18.977Z,99129.90
2023-08-13T14:27:46.362Z,99127.65
2023-08-13T14:30:14.392Z,99131.42
2023-08-13T14:32:41.778Z,99129.81
2023-08-13T14:35:09.685Z,99127.95
2023-08-13T14:37:36.994Z,99127.08
2023-08-13T14:40:05.172Z,99125.06
2023-08-13T14:42:32.566Z,99127.20
2023-08-13T14:44:59.901Z,99121.98
2023-08-13T14:47:27.413Z,99123.96
2023-08-13T14:49:54.812Z,99123.73
2023-08-13T14:52:22.147Z,99115.16
2023-08-13T14:54:49.455Z,99115.70
2023-08-13T14:57:16.794Z,99118.74
2023-08-13T14:59:44.149Z,99115.77
2023-08-13T15:02:11.645Z,99118.52
2023-08-13T15:04:41.095Z,99121.55
2023-08-13T15:07:08.477Z,99119.81
2023-08-13T15:09:35.804Z,99120.17
2023-08-13T15:12:03.957Z,99118.46
2023-08-13T15:14:31.335Z,99121.48
2023-08-13T15:16:58.619Z,99121.19
2023-08-13T15:19:25.958Z,99123.27
2023-08-13T15:21:53.335Z,99121.83
2023-08-13T15:24:20.837Z,99125.54
2023-08-13T15:26:48.176Z,99123.33
2023-08-13T15:29:15.566Z,99122.34
2023-08-13T15:31:42.993Z,99125.68
2023-08-13T15:34:11.321Z,99122.02
2023-08-13T15:36:38.669Z,99123.16
2023-08-13T15:39:06.351Z,99122.70
2023-08-13T15:41:33.677Z,99118.94
2023-08-13T15:44:01.208Z,99126.61
2023-08-13T15:46:28.629Z,99129.44
2023-08-13T15:48:56.020Z,99126.61
2023-08-13T15:51:23.438Z,99127.48
2023-08-13T15:53:50.852Z,99125.46
2023-08-13T15:56:18.215Z,99123.53
2023-08-13T15:58:45.567Z,99124.88
2023-08-13T16:01:12.957Z,99122.91
2023-08-13T16:03:40.480Z,99125.54
2023-08-13T16:06:07.841Z,99126.71
2023-08-13T16:08:35.142Z,99124.50
2023-08-13T16:11:02.550Z,99128.45
2023-08-13T16:13:36.947Z,99125.35
2023-08-13T16:16:04.971Z,99125.48
2023-08-13T16:18:32.351Z,99125.28
2023-08-13T16:20:59.832Z,99124.49
2023-08-13T16:23:27.408Z,99123.91
2023-08-13T16:25:55.180Z,99124.26
2023-08-13T16:28:22.600Z,99126.29
2023-08-13T16:30:50.098Z,99128.87
2023-08-13T16:33:17.429Z,99128.13
2023-08-13T16:35:44.771Z,99128.27
2023-08-13T16:38:12.238Z,99128.23
2023-08-13T16:40:39.722Z,99128.60
2023-08-13T16:43:10.556Z,99127.55
2023-08-13T16:45:39.752Z,99130.66
2023-08-13T16:48:07.548Z,99132.73
2023-08-13T16:50:35.165Z,99132.85
2023-08-13T16:53:02.639Z,99135.61
2023-08-13T16:55:30.196Z,99137.15
2023-08-13T16:57:57.523Z,99136.11
2023-08-13T17:00:24.898Z,99138.36
2023-08-13T17:02:52.946Z,99140.63
2023-08-13T17:05:20.651Z,99137.38
2023-08-13T17:07:48.114Z,99138.27
2023-08-13T17:10:15.640Z,99138.06
2023-08-13T17:12:43.297Z,99141.73
2023-08-13T17:15:22.869Z,99142.36
2023-08-13T17:17:55.553Z,99141.92
2023-08-13T17:20:23.874Z,99143.16
2023-08-13T17:22:51.369Z,99149.40
2023-08-13T17:25:19.595Z,99152.34
2023-08-13T17:27:47.501Z,99155.94
2023-08-13T17:30:15.235Z,99159.89
2023-08-13T17:32:42.728Z,99159.89
2023-08-13T17:35:10.603Z,99162.02
2023-08-13T17:37:37.965Z,99159.54
2023-08-13T17:40:06.509Z,99159.33
2023-08-13T17:42:33.896Z,99164.77
2023-08-13T17:45:01.266Z,99164.32
2023-08-13T17:47:29.920Z,99171.80
2023-08-13T17:49:58.186Z,99175.96
2023-08-13T17:52:28.252Z,99177.66
2023-08-13T17:54:55.596Z,99179.10
2023-08-13T17:57:23.147Z,99182.30
2023-08-13T17:59:50.593Z,99185.38
2023-08-13T18:02:27.828Z,99185.59
2023-08-13T18:04:55.919Z,99190.55
2023-08-13T18:07:26.224Z,99190.90
2023-08-13T18:09:55.375Z,99192.34
2023-08-13T18:12:22.802Z,99194.66
2023-08-13T18:14:51.420Z,99198.94
2023-08-13T18:17:19.107Z,99202.37
2023-08-13T18:19:47.853Z,99200.80
2023-08-13T18:22:15.226Z,99202.05
2023-08-13T18:24:42.579Z,99205.15
2023-08-13T18:27:09.933Z,99206.16
2023-08-13T18:29:37.546Z,99208.67
2023-08-13T18:32:05.654Z,99208.34
2023-08-13T18:34:32.942Z,99210.27
2023-08-13T18:37:00.349Z,99210.34
2023-08-13T18:39:27.708Z,99214.93
2023-08-13T18:41:55.029Z,99221.46
2023-08-13T18:44:22.361Z,99223.04
2023-08-13T18:46:49.909Z,99223.94
2023-08-13T18:49:17.678Z,99227.70
2023-08-13T18:51:45.117Z,99228.80
2023-08-13T18:54:15.570Z,99229.02
2023-08-13T18:56:44.026Z,99229.75
2023-08-13T18:59:11.391Z,99232.79
2023-08-13T19:01:38.826Z,99237.61
2023-08-13T19:04:06.639Z,99237.06
2023-08-13T19:06:34.020Z,99237.11
2023-08-13T19:09:28.420Z,99237.33
2023-08-13T19:11:56.606Z,99240.88
2023-08-13T19:14:24.012Z,99245.95
2023-08-13T19:16:51.458Z,99248.18
2023-08-13T19:19:19.142Z,99254.41
2023-08-13T19:21:47.211Z,99253.68
2023-08-13T19:24:14.789Z,99254.50
2023-08-13T19:26:43.234Z,99252.87
2023-08-13T19:29:11.056Z,99254.77
2023-08-13T19:31:39.947Z,99253.21
2023-08-13T19:34:07.402Z,99252.45
2023-08-13T19:36:34.787Z,99255.74
2023-08-13T19:39:02.133Z,99255.70
2023-08-13T19:41:29.827Z,99256.14
2023-08-13T19:43:57.295Z,99255.17
2023-08-13T19:46:24.718Z,99257.79
2023-08-13T19:48:52.152Z,99255.05
2023-08-13T19:51:19.639Z,99254.50
2023-08-13T19:53:47.614Z,99257.61
2023-08-13T19:56:15.297Z,99256.55
2023-08-13T19:58:43.112Z,99260.98
2023-08-13T20:01:12.215Z,99256.77
2023-08-13T20:03:39.705Z,99256.82
2023-08-13T20:06:07.198Z,99255.69
2023-08-13T20:08:34.576Z,99258.20
2023-08-13T20:11:01.949Z,99262.58
2023-08-13T20:13:29.387Z,99261.52
2023-08-13T20:16:07.086Z,99260.29
2023-08-13T20:18:34.671Z,99261.70
2023-08-13T20:21:02.035Z,99265.79
2023-08-13T20:23:29.546Z,99267.04
2023-08-13T20:25:56.965Z,99268.29
2023-08-13T20:28:24.391Z,99268.26
2023-08-13T20:30:51.818Z,99266.48
2023-08-13T20:33:19.204Z,99269.29
2023-08-13T20:35:48.520Z,99264.77
2023-08-13T20:38:16.027Z,99264.95
2023-08-13T20:40:49.799Z,99264.95
2023-08-13T20:43:20.558Z,99266.55
2023-08-13T20:45:48.081Z,99271.65
2023-08-13T20:48:15.706Z,99273.05
2023-08-13T20:50:43.217Z,99275.64
2023-08-13T20:53:10.571Z,99280.89
2023-08-13T20:55:38.129Z,99282.83
2023-08-13T20:58:05.672Z,99282.98
2023-08-13T21:00:33.048Z,99277.51
2023-08-13T21:03:00.441Z,99278.00
2023-08-13T21:05:29.320Z,99276.73
2023-08-13T21:07:56.673Z,99280.04
2023-08-13T21:10:24.118Z,99280.41
2023-08-13T21:12:51.504Z,99281.28
2023-08-13T21:15:18.879Z,99280.05
2023-08-13T21:17:46.256Z,99281.74
2023-08-13T21:20:13.644Z,99286.91
2023-08-13T21:22:41.236Z,99285.24
2023-08-13T21:25:08.959Z,99288.66
2023-08-13T21:27:36.511Z,99288.77
2023-08-13T21:30:11.528Z,99291.11
2023-08-13T21:32:39.815Z,99294.52
2023-08-13T21:35:11.612Z,99294.41
2023-08-13T21:37:39.911Z,99290.96
2023-08-13T21:40:08.470Z,99294.91
2023-08-13T21:42:35.840Z,99294.79
2023-08-13T21:45:03.710Z,99294.19
2023-08-13T21:47:31.235Z,99297.39
2023-08-13T21:49:58.563Z,99293.08
2023-08-13T21:52:25.997Z,99298.27
2023-08-13T21:54:53.340Z,99299.95
2023-08-13T21:57:20.668Z,99298.29
2023-08-13T21:59:48.208Z,99300.83
2023-08-13T22:02:15.828Z,99302.86
2023-08-13T22:04:43.651Z,99302.09
2023-08-13T22:07:10.990Z,99302.77
2023-08-13T22:09:38.331Z,99305.48
2023-08-13T22:12:06.136Z,99304.70
2023-08-13T22:14:33.493Z,99302.89
2023-08-13T22:17:00.842Z,99305.75
2023-08-13T22:19:45.937Z,99305.30
2023-08-13T22:22:13.308Z,99307.52
2023-08-13T22:24:40.627Z,99307.06
2023-08-13T22:27:08.300Z,99307.17
2023-08-13T22:29:35.628Z,99307.99
2023-08-13T22:32:03.135Z,99306.16
2023-08-13T22:34:30.664Z,99305.55
2023-08-13T22:36:58.053Z,99305.35
2023-08-13T22:39:30.909Z,99302.65
2023-08-13T22:41:59.208Z,99302.23
2023-08-13T22:44:26.658Z,99302.12
2023-08-13T22:46:54.022Z,99306.59
2023-08-13T22:49:35.234Z,99305.60
2023-08-13T22:52:12.646Z,99305.71
2023-08-13T22:54:40.646Z,99305.98
2023-08-13T22:57:09.459Z,99307.25
2023-08-13T22:59:37.330Z,99311.02
2023-08-13T23:02:05.106Z,99309.87
2023-08-13T23:04:32.580Z,99312.58
2023-08-13T23:07:00.344Z,99311.77
2023-08-13T23:09:27.925Z,99312.95
2023-08-13T23:11:55.738Z,99314.51
2023-08-13T23:14:23.148Z,99313.95
2023-08-13T23:16:54.487Z,99312.66
2023-08-13T23:19:22.887Z,99318.71
2023-08-13T23:21:50.431Z,99320.73
2023-08-13T23:24:17.768Z,99324.30
2023-08-13T23:26:45.374Z,99322.50
2023-08-13T23:29:12.720Z,99328.55
2023-08-13T23:31:40.139Z,99326.86
2023-08-13T23:34:07.670Z,99328.55
2023-08-13T23:36:34.975Z,99328.83
2023-08-13T23:39:02.415Z,99325.81
2023-08-13T23:42:37.692Z,99326.58
2023-08-13T23:45:06.075Z,99325.22
2023-08-13T23:47:33.644Z,99322.02
2023-08-13T23:50:06.098Z,99322.70
2023-08-13T23:52:33.836Z,99319.98
2023-08-13T23:55:02.815Z,99319.98
2023-08-13T23:57:30.203Z,99318.76
2023-08-13T23:59:57.646Z,99321.05
